AirNav   Pilot Hours Calculator
 
 839 users online  

9PS3 Doylestown Heliport
Doylestown, Pennsylvania, USA

GOING TO DOYLESTOWN?


FAA INFORMATION EFFECTIVE 02 JANUARY 2020

Location

FAA Identifier: 9PS3
Lat/Long: 40-18-32.2900N 075-08-54.3500W
40-18.538167N 075-08.905833W
40.3089694,-75.1484306
(estimated)
Elevation: 325 ft. / 99 m (estimated)
Variation: 12W (1990)
From city: 2 miles W of DOYLESTOWN, PA
Time zone: UTC -5 (UTC -4 during Daylight Saving Time)
Zip code: 18901

Heliport Operations

Heliport use: Private use, RY H1 MEDICAL USE.
Activation date: 03/1994
Control tower: no
ARTCC: NEW YORK CENTER
FSS: WILLIAMSPORT FLIGHT SERVICE STATION
Attendance: CONTINUOUS
Wind indicator: yes
Segmented circle: no
Lights: PHONE REQ; FOR PERIMETER LGTS CALL 215-345-2200.

Heliport Communications

WX ASOS at DYL (1.9 nm NE): 118.875 (215-345-0392)
WX AWOS-3 at CKZ (8 nm NW): 126.325 (215-257-7291)
WX AWOS-3 at LOM (12 nm SW): 118.925 (215-646-1068)
WX AWOS-3 at UKT (13 nm NW): 119.475 (215-538-7610)
WX ASOS at PNE (15 nm SE): 121.15 (215-677-0146)
WX ASOS at TTN (15 nm E): 126.775 (609-538-8690)
WX ASOS at PTW (19 nm W): 119.425 (610-495-0823)

Nearby radio navigation aids

VOR radial/distance  VOR name  Freq  Var
ARDr297/11.5YARDLEY VOR/DME108.2010W
PTWr084/19.6POTTSTOWN VORTAC116.5009W
SBJr238/24.8SOLBERG VOR/DME112.9010W
FJCr161/28.7ALLENTOWN VORTAC117.5010W
ETXr133/29.4EAST TEXAS VOR/DME110.2009W
RBVr292/30.6ROBBINSVILLE VORTAC113.8010W
GXUr317/31.0MC GUIRE VORTAC110.6012W
BWZr218/32.9BROADWAY VOR/DME114.2011W
MXEr055/33.5MODENA VORTAC113.2009W

 
NDB name  Hdg/Dist  Freq  Var  ID
AMBLER042/12.627512WING .. -. --.

Heliport Services

Runway Information

Helipad H1

Dimensions: 65 x 65 ft. / 20 x 20 m
Surface: asphalt
Runway edge lights: PERI
Latitude: 40-18.538167N
Longitude: 075-08.905833W
Elevation: 325.0 ft.
Traffic pattern: leftleft

Heliport Ownership and Management from official FAA records

Ownership: Privately-owned
Owner: DOYLESTOWN HOSPITAL
595 WEST STATE STREET
DOYLESTOWN, PA 18901
Phone 215-345-2200
Manager: TOM SMITH
595 WEST STATE STREET
DOYLESTOWN, PA 18901
Phone 215-345-2200

Heliport Operational Statistics

Aircraft based on the field: 1
Helicopters: 1
    

Additional Remarks

FOR CD CTC PHILADELPHIA APCH AT 800-354-9884.

Instrument Procedures

There are no published instrument procedures at 9PS3.

Some nearby airports with instrument procedures:

KDYL - Doylestown Airport (2 nm NE)
KCKZ - Pennridge Airport (8 nm NW)
KLOM - Wings Field Airport (12 nm SW)
KUKT - Quakertown Airport (13 nm NW)
N10 - Perkiomen Valley Airport (14 nm SW)
KPNE - Northeast Philadelphia Airport (15 nm SE)
KTTN - Trenton Mercer Airport (15 nm E)
N40 - Sky Manor Airport (17 nm NE)
N85 - Alexandria Airport (18 nm N)
KPTW - Heritage Field Airport (19 nm W)
 
Loc | Ops | Rwys | IFR | FBO | Links
Com | Nav | Svcs | Stats | Notes
Area around 9PS3 (Doylestown Heliport)
 
Road maps at: MapQuest Bing Google
 
Aerial photo
No photo
 
Sectional chart

 
Airport distance calculator
Flying to Doylestown Heliport? Find the distance to fly.

From to 9PS3

Sunrise and sunset
Times for 21-Jan-2020
 Local
(UTC-5)
 Zulu
(UTC)
Morning civil twilight06:5011:50
Sunrise07:1912:19
Sunset17:0422:04
Evening civil twilight17:3422:34

Current date and time
Zulu (UTC)  21-Jan-2020 12:41:43
Local (UTC-5)  21-Jan-2020 07:41:43
 
METAR
KDYL 
2nm NE 
211154Z AUTO 00000KT 10SM CLR M09/M14 A3043 RMK AO2 SLP318 T10941144 11067 21100 53014
KCKZ 
8nm NW 
211215Z AUTO 00000KT 10SM CLR M10/M14 A3044 RMK AO2
KLOM 
12nm SW 
211215Z AUTO 29003KT 10SM CLR M09/M14 A3046 RMK AO2 T10871140
KUKT 
13nm NW 
211220Z AUTO 00000KT 10SM CLR M11/M14 A3044 RMK A01
KPNE 
15nm SE 
211154Z 31004KT 10SM CLR M07/M14 A3048 RMK AO2 SLP322 T10671139 11056 21067 53014 $
KTTN 
15nm E 
ASOS 133.70 609-538-8690
211153Z 30004KT 10SM CLR M08/M14 A3045 RMK AO2 SLP308 T10831144 11067 21089 53015 $
KPTW 
19nm W 
211154Z AUTO 30004KT 10SM CLR M11/M15 A3047 RMK AO2 SLP320 T11061150 11078 21111 53013 $
TAF
KPNE 
15nm SE 
211120Z 2112/2212 33008KT P6SM SKC FM212300 34005KT P6SM FEW250 FM220400 36003KT P6SM FEW250
KTTN 
15nm E 
211120Z 2112/2212 30004KT P6SM SKC FM211500 33008KT P6SM SKC FM212200 34004KT P6SM FEW250 FM220400 VRB02KT P6SM FEW250
NOTAMs
Click for the latest NOTAMs
NOTAMs are issued by the DoD/FAA and will open in a separate window not controlled by AirNav.

 

 
 

Would you like to see your business listed on this page?

 If your business provides an interesting product or service to pilots, flight crews, aircraft, or users of the Doylestown Heliport, you should consider listing it here.  To start the listing process, click on the button below
 
Add a business
 

Other Pages about Doylestown Heliport

Update a link
 
Copyright © AirNav, LLC. All rights reserved. Privacy Policy  Contact